sensor_id;sensor_type;location;lat;lon;timestamp;P1;durP1;ratioP1;P2;durP2;ratioP2
17592;SDS011;8915;51.760;14.300;2022-08-01T00:01:52;2.60;;;2.00;;
17592;SDS011;8915;51.760;14.300;2022-08-01T00:04:18;1.70;;;1.60;;
17592;SDS011;8915;51.760;14.300;2022-08-01T00:06:45;1.77;;;1.67;;
17592;SDS011;8915;51.760;14.300;2022-08-01T00:09:13;1.97;;;1.80;;
17592;SDS011;8915;51.760;14.300;2022-08-01T00:11:40;2.20;;;2.00;;
17592;SDS011;8915;51.760;14.300;2022-08-01T00:14:06;2.00;;;1.80;;
17592;SDS011;8915;51.760;14.300;2022-08-01T00:16:35;2.70;;;2.00;;
17592;SDS011;8915;51.760;14.300;2022-08-01T00:19:01;2.20;;;1.93;;
17592;SDS011;8915;51.760;14.300;2022-08-01T00:21:28;2.10;;;1.90;;
17592;SDS011;8915;51.760;14.300;2022-08-01T00:23:54;2.97;;;1.90;;
17592;SDS011;8915;51.760;14.300;2022-08-01T00:26:22;2.20;;;2.00;;
17592;SDS011;8915;51.760;14.300;2022-08-01T00:28:49;1.80;;;1.70;;
17592;SDS011;8915;51.760;14.300;2022-08-01T00:31:15;1.90;;;1.80;;
17592;SDS011;8915;51.760;14.300;2022-08-01T00:33:42;2.00;;;1.80;;
17592;SDS011;8915;51.760;14.300;2022-08-01T00:36:08;1.80;;;1.70;;
17592;SDS011;8915;51.760;14.300;2022-08-01T00:38:35;1.93;;;1.77;;
17592;SDS011;8915;51.760;14.300;2022-08-01T00:41:01;4.37;;;2.03;;
17592;SDS011;8915;51.760;14.300;2022-08-01T00:43:29;2.47;;;2.17;;
17592;SDS011;8915;51.760;14.300;2022-08-01T00:45:56;2.00;;;1.80;;
17592;SDS011;8915;51.760;14.300;2022-08-01T00:48:22;1.70;;;1.60;;
17592;SDS011;8915;51.760;14.300;2022-08-01T00:50:48;1.83;;;1.73;;
17592;SDS011;8915;51.760;14.300;2022-08-01T00:53:15;2.07;;;1.60;;
17592;SDS011;8915;51.760;14.300;2022-08-01T00:55:42;1.80;;;1.70;;
17592;SDS011;8915;51.760;14.300;2022-08-01T00:58:08;2.10;;;1.80;;
17592;SDS011;8915;51.760;14.300;2022-08-01T01:00:36;2.07;;;1.87;;
17592;SDS011;8915;51.760;14.300;2022-08-01T01:03:03;1.70;;;1.60;;
17592;SDS011;8915;51.760;14.300;2022-08-01T01:05:29;2.10;;;1.90;;
17592;SDS011;8915;51.760;14.300;2022-08-01T01:08:02;2.07;;;1.90;;
17592;SDS011;8915;51.760;14.300;2022-08-01T01:10:36;2.47;;;2.00;;
17592;SDS011;8915;51.760;14.300;2022-08-01T01:13:09;2.30;;;2.10;;
17592;SDS011;8915;51.760;14.300;2022-08-01T01:15:41;2.00;;;1.80;;
17592;SDS011;8915;51.760;14.300;2022-08-01T01:18:12;2.03;;;1.93;;
17592;SDS011;8915;51.760;14.300;2022-08-01T01:20:44;2.20;;;1.87;;
17592;SDS011;8915;51.760;14.300;2022-08-01T01:23:19;3.47;;;2.10;;
17592;SDS011;8915;51.760;14.300;2022-08-01T01:26:10;2.00;;;1.80;;
17592;SDS011;8915;51.760;14.300;2022-08-01T01:29:05;1.97;;;1.70;;
17592;SDS011;8915;51.760;14.300;2022-08-01T01:31:36;2.90;;;2.10;;
17592;SDS011;8915;51.760;14.300;2022-08-01T01:34:09;3.70;;;1.80;;
17592;SDS011;8915;51.760;14.300;2022-08-01T01:36:39;2.63;;;2.10;;
17592;SDS011;8915;51.760;14.300;2022-08-01T01:39:07;2.40;;;2.00;;
17592;SDS011;8915;51.760;14.300;2022-08-01T01:41:34;2.73;;;1.70;;
17592;SDS011;8915;51.760;14.300;2022-08-01T01:44:02;2.10;;;1.90;;
17592;SDS011;8915;51.760;14.300;2022-08-01T01:46:32;2.20;;;1.97;;
17592;SDS011;8915;51.760;14.300;2022-08-01T01:48:59;2.37;;;1.83;;
17592;SDS011;8915;51.760;14.300;2022-08-01T01:51:27;1.70;;;1.60;;
17592;SDS011;8915;51.760;14.300;2022-08-01T01:53:55;1.83;;;1.70;;
17592;SDS011;8915;51.760;14.300;2022-08-01T01:56:23;4.07;;;2.10;;
17592;SDS011;8915;51.760;14.300;2022-08-01T01:58:52;2.47;;;1.63;;
17592;SDS011;8915;51.760;14.300;2022-08-01T02:01:22;1.90;;;1.73;;
17592;SDS011;8915;51.760;14.300;2022-08-01T02:03:51;2.10;;;1.90;;
17592;SDS011;8915;51.760;14.300;2022-08-01T02:06:19;3.00;;;2.13;;
17592;SDS011;8915;51.760;14.300;2022-08-01T02:08:47;2.17;;;1.70;;
17592;SDS011;8915;51.760;14.300;2022-08-01T02:11:14;1.70;;;1.60;;
17592;SDS011;8915;51.760;14.300;2022-08-01T02:13:44;1.97;;;1.77;;
17592;SDS011;8915;51.760;14.300;2022-08-01T02:16:14;2.20;;;1.90;;
17592;SDS011;8915;51.760;14.300;2022-08-01T02:18:43;1.70;;;1.60;;
17592;SDS011;8915;51.760;14.300;2022-08-01T02:21:11;1.87;;;1.67;;
17592;SDS011;8915;51.760;14.300;2022-08-01T02:23:40;2.50;;;1.80;;
17592;SDS011;8915;51.760;14.300;2022-08-01T02:26:09;2.87;;;1.80;;
17592;SDS011;8915;51.760;14.300;2022-08-01T02:28:41;1.77;;;1.60;;
17592;SDS011;8915;51.760;14.300;2022-08-01T02:31:12;2.53;;;1.90;;
17592;SDS011;8915;51.760;14.300;2022-08-01T02:33:40;3.00;;;1.70;;
17592;SDS011;8915;51.760;14.300;2022-08-01T02:36:10;2.20;;;1.53;;
17592;SDS011;8915;51.760;14.300;2022-08-01T02:38:40;1.60;;;1.50;;
17592;SDS011;8915;51.760;14.300;2022-08-01T02:41:09;1.70;;;1.50;;
17592;SDS011;8915;51.760;14.300;2022-08-01T02:43:40;1.90;;;1.60;;
17592;SDS011;8915;51.760;14.300;2022-08-01T02:46:12;2.17;;;1.40;;
17592;SDS011;8915;51.760;14.300;2022-08-01T02:48:44;1.93;;;1.70;;
17592;SDS011;8915;51.760;14.300;2022-08-01T02:51:15;2.63;;;1.80;;
17592;SDS011;8915;51.760;14.300;2022-08-01T02:53:43;1.50;;;1.40;;
17592;SDS011;8915;51.760;14.300;2022-08-01T02:56:11;2.43;;;1.73;;
17592;SDS011;8915;51.760;14.300;2022-08-01T02:58:39;1.90;;;1.70;;
17592;SDS011;8915;51.760;14.300;2022-08-01T03:01:08;1.80;;;1.70;;
17592;SDS011;8915;51.760;14.300;2022-08-01T03:03:36;2.03;;;1.73;;
17592;SDS011;8915;51.760;14.300;2022-08-01T03:06:03;1.83;;;1.50;;
17592;SDS011;8915;51.760;14.300;2022-08-01T03:08:32;3.30;;;1.77;;
17592;SDS011;8915;51.760;14.300;2022-08-01T03:11:00;1.63;;;1.33;;
17592;SDS011;8915;51.760;14.300;2022-08-01T03:13:28;2.03;;;1.60;;
17592;SDS011;8915;51.760;14.300;2022-08-01T03:15:56;2.57;;;1.93;;
17592;SDS011;8915;51.760;14.300;2022-08-01T03:18:24;2.30;;;1.70;;
17592;SDS011;8915;51.760;14.300;2022-08-01T03:20:52;1.63;;;1.53;;
17592;SDS011;8915;51.760;14.300;2022-08-01T03:23:21;1.83;;;1.70;;
17592;SDS011;8915;51.760;14.300;2022-08-01T03:25:50;2.97;;;1.73;;
17592;SDS011;8915;51.760;14.300;2022-08-01T03:28:18;2.10;;;1.90;;
17592;SDS011;8915;51.760;14.300;2022-08-01T03:30:47;2.00;;;1.80;;
17592;SDS011;8915;51.760;14.300;2022-08-01T03:33:14;1.83;;;1.67;;
17592;SDS011;8915;51.760;14.300;2022-08-01T03:35:42;4.00;;;1.53;;
17592;SDS011;8915;51.760;14.300;2022-08-01T03:38:12;2.80;;;1.53;;
17592;SDS011;8915;51.760;14.300;2022-08-01T03:40:45;2.17;;;1.67;;
17592;SDS011;8915;51.760;14.300;2022-08-01T03:43:18;1.60;;;1.50;;
17592;SDS011;8915;51.760;14.300;2022-08-01T03:45:50;1.90;;;1.60;;
17592;SDS011;8915;51.760;14.300;2022-08-01T03:48:19;2.73;;;1.70;;
17592;SDS011;8915;51.760;14.300;2022-08-01T03:50:54;1.77;;;1.67;;
17592;SDS011;8915;51.760;14.300;2022-08-01T03:53:23;2.00;;;1.80;;
17592;SDS011;8915;51.760;14.300;2022-08-01T03:55:51;2.53;;;1.90;;
17592;SDS011;8915;51.760;14.300;2022-08-01T03:58:20;2.00;;;1.70;;
17592;SDS011;8915;51.760;14.300;2022-08-01T04:00:47;1.67;;;1.57;;
17592;SDS011;8915;51.760;14.300;2022-08-01T04:03:15;2.17;;;1.90;;
17592;SDS011;8915;51.760;14.300;2022-08-01T04:05:43;2.47;;;1.60;;
17592;SDS011;8915;51.760;14.300;2022-08-01T04:08:09;2.43;;;1.80;;
17592;SDS011;8915;51.760;14.300;2022-08-01T04:10:36;3.10;;;1.50;;
17592;SDS011;8915;51.760;14.300;2022-08-01T04:13:03;1.83;;;1.60;;
17592;SDS011;8915;51.760;14.300;2022-08-01T04:15:31;1.63;;;1.50;;
17592;SDS011;8915;51.760;14.300;2022-08-01T04:17:58;2.43;;;1.77;;
17592;SDS011;8915;51.760;14.300;2022-08-01T04:20:24;2.00;;;1.80;;
17592;SDS011;8915;51.760;14.300;2022-08-01T04:22:51;2.13;;;1.93;;
17592;SDS011;8915;51.760;14.300;2022-08-01T04:25:19;3.60;;;1.70;;
17592;SDS011;8915;51.760;14.300;2022-08-01T04:27:51;4.90;;;1.80;;
17592;SDS011;8915;51.760;14.300;2022-08-01T04:30:19;2.03;;;1.87;;
17592;SDS011;8915;51.760;14.300;2022-08-01T04:32:49;2.40;;;1.80;;
17592;SDS011;8915;51.760;14.300;2022-08-01T04:35:19;1.90;;;1.70;;
17592;SDS011;8915;51.760;14.300;2022-08-01T04:37:47;2.33;;;1.77;;
17592;SDS011;8915;51.760;14.300;2022-08-01T04:40:16;2.20;;;1.87;;
17592;SDS011;8915;51.760;14.300;2022-08-01T04:42:43;2.43;;;1.90;;
17592;SDS011;8915;51.760;14.300;2022-08-01T04:45:10;1.90;;;1.53;;
17592;SDS011;8915;51.760;14.300;2022-08-01T04:47:37;2.77;;;2.00;;
17592;SDS011;8915;51.760;14.300;2022-08-01T04:50:07;1.97;;;1.67;;
17592;SDS011;8915;51.760;14.300;2022-08-01T04:52:35;2.10;;;1.63;;
17592;SDS011;8915;51.760;14.300;2022-08-01T04:55:04;1.40;;;1.30;;
17592;SDS011;8915;51.760;14.300;2022-08-01T04:57:32;1.70;;;1.60;;
17592;SDS011;8915;51.760;14.300;2022-08-01T05:00:02;1.90;;;1.70;;
17592;SDS011;8915;51.760;14.300;2022-08-01T05:02:28;1.70;;;1.40;;
17592;SDS011;8915;51.760;14.300;2022-08-01T05:04:55;3.33;;;1.60;;
17592;SDS011;8915;51.760;14.300;2022-08-01T05:07:23;2.53;;;1.40;;
17592;SDS011;8915;51.760;14.300;2022-08-01T05:09:50;3.07;;;1.87;;
17592;SDS011;8915;51.760;14.300;2022-08-01T05:12:17;1.83;;;1.67;;
17592;SDS011;8915;51.760;14.300;2022-08-01T05:14:45;1.80;;;1.63;;
17592;SDS011;8915;51.760;14.300;2022-08-01T05:17:12;1.67;;;1.57;;
17592;SDS011;8915;51.760;14.300;2022-08-01T05:19:39;2.13;;;1.93;;
17592;SDS011;8915;51.760;14.300;2022-08-01T05:22:08;2.10;;;1.60;;
17592;SDS011;8915;51.760;14.300;2022-08-01T05:24:37;1.50;;;1.40;;
17592;SDS011;8915;51.760;14.300;2022-08-01T05:27:05;1.60;;;1.40;;
17592;SDS011;8915;51.760;14.300;2022-08-01T05:29:34;1.60;;;1.47;;
17592;SDS011;8915;51.760;14.300;2022-08-01T05:32:01;1.70;;;1.60;;
17592;SDS011;8915;51.760;14.300;2022-08-01T05:34:28;1.67;;;1.40;;
17592;SDS011;8915;51.760;14.300;2022-08-01T05:36:54;2.07;;;1.40;;
17592;SDS011;8915;51.760;14.300;2022-08-01T05:39:20;3.10;;;1.60;;
17592;SDS011;8915;51.760;14.300;2022-08-01T05:41:48;1.53;;;1.40;;
17592;SDS011;8915;51.760;14.300;2022-08-01T05:44:15;1.60;;;1.50;;
17592;SDS011;8915;51.760;14.300;2022-08-01T05:46:41;1.40;;;1.30;;
17592;SDS011;8915;51.760;14.300;2022-08-01T05:49:08;1.70;;;1.60;;
17592;SDS011;8915;51.760;14.300;2022-08-01T05:51:34;2.00;;;1.80;;
17592;SDS011;8915;51.760;14.300;2022-08-01T05:54:01;2.50;;;1.70;;
17592;SDS011;8915;51.760;14.300;2022-08-01T05:56:27;1.60;;;1.40;;
17592;SDS011;8915;51.760;14.300;2022-08-01T05:58:55;1.47;;;1.20;;
17592;SDS011;8915;51.760;14.300;2022-08-01T06:01:22;1.33;;;1.20;;
17592;SDS011;8915;51.760;14.300;2022-08-01T06:03:48;1.83;;;1.47;;
17592;SDS011;8915;51.760;14.300;2022-08-01T06:06:15;1.65;;;1.30;;
17592;SDS011;8915;51.760;14.300;2022-08-01T06:08:41;1.50;;;1.30;;
17592;SDS011;8915;51.760;14.300;2022-08-01T06:11:08;1.50;;;1.40;;
17592;SDS011;8915;51.760;14.300;2022-08-01T06:13:34;2.03;;;1.47;;
17592;SDS011;8915;51.760;14.300;2022-08-01T06:16:02;1.60;;;1.50;;
17592;SDS011;8915;51.760;14.300;2022-08-01T06:18:29;1.70;;;1.60;;
17592;SDS011;8915;51.760;14.300;2022-08-01T06:20:55;1.80;;;1.70;;
17592;SDS011;8915;51.760;14.300;2022-08-01T06:23:22;1.53;;;1.40;;
17592;SDS011;8915;51.760;14.300;2022-08-01T06:25:51;2.33;;;1.60;;
17592;SDS011;8915;51.760;14.300;2022-08-01T06:28:18;1.57;;;1.30;;
17592;SDS011;8915;51.760;14.300;2022-08-01T06:30:44;1.40;;;1.30;;
17592;SDS011;8915;51.760;14.300;2022-08-01T06:33:12;2.70;;;1.37;;
17592;SDS011;8915;51.760;14.300;2022-08-01T06:35:39;1.47;;;1.30;;
17592;SDS011;8915;51.760;14.300;2022-08-01T06:38:05;1.77;;;1.47;;
17592;SDS011;8915;51.760;14.300;2022-08-01T06:40:33;1.60;;;1.50;;
17592;SDS011;8915;51.760;14.300;2022-08-01T06:43:00;2.10;;;1.63;;
17592;SDS011;8915;51.760;14.300;2022-08-01T06:45:26;2.35;;;1.70;;
17592;SDS011;8915;51.760;14.300;2022-08-01T06:47:53;4.10;;;1.70;;
17592;SDS011;8915;51.760;14.300;2022-08-01T06:50:20;1.40;;;1.30;;
17592;SDS011;8915;51.760;14.300;2022-08-01T06:52:47;2.22;;;1.50;;
17592;SDS011;8915;51.760;14.300;2022-08-01T06:55:13;2.13;;;1.50;;
17592;SDS011;8915;51.760;14.300;2022-08-01T06:57:47;1.60;;;1.50;;
17592;SDS011;8915;51.760;14.300;2022-08-01T07:00:14;1.50;;;1.40;;
17592;SDS011;8915;51.760;14.300;2022-08-01T07:02:43;1.52;;;1.42;;
17592;SDS011;8915;51.760;14.300;2022-08-01T07:05:10;1.90;;;1.60;;
17592;SDS011;8915;51.760;14.300;2022-08-01T07:07:38;2.33;;;1.50;;
17592;SDS011;8915;51.760;14.300;2022-08-01T07:10:05;1.90;;;1.70;;
17592;SDS011;8915;51.760;14.300;2022-08-01T07:12:33;1.73;;;1.63;;
17592;SDS011;8915;51.760;14.300;2022-08-01T07:15:01;2.78;;;1.38;;
17592;SDS011;8915;51.760;14.300;2022-08-01T07:17:28;1.60;;;1.50;;
17592;SDS011;8915;51.760;14.300;2022-08-01T07:19:54;2.20;;;1.45;;
17592;SDS011;8915;51.760;14.300;2022-08-01T07:22:21;2.75;;;1.73;;
17592;SDS011;8915;51.760;14.300;2022-08-01T07:24:49;1.92;;;1.48;;
17592;SDS011;8915;51.760;14.300;2022-08-01T07:27:15;1.65;;;1.55;;
17592;SDS011;8915;51.760;14.300;2022-08-01T07:29:42;1.40;;;1.30;;
17592;SDS011;8915;51.760;14.300;2022-08-01T07:32:08;1.42;;;1.30;;
17592;SDS011;8915;51.760;14.300;2022-08-01T07:34:35;1.30;;;1.20;;
17592;SDS011;8915;51.760;14.300;2022-08-01T07:37:01;1.60;;;1.50;;
17592;SDS011;8915;51.760;14.300;2022-08-01T07:39:28;1.63;;;1.52;;
17592;SDS011;8915;51.760;14.300;2022-08-01T07:41:55;1.67;;;1.30;;
17592;SDS011;8915;51.760;14.300;2022-08-01T07:44:22;1.48;;;1.38;;
17592;SDS011;8915;51.760;14.300;2022-08-01T07:46:49;1.25;;;1.15;;
17592;SDS011;8915;51.760;14.300;2022-08-01T07:49:15;1.40;;;1.30;;
17592;SDS011;8915;51.760;14.300;2022-08-01T07:51:42;1.40;;;1.27;;
17592;SDS011;8915;51.760;14.300;2022-08-01T07:54:08;1.50;;;1.23;;
17592;SDS011;8915;51.760;14.300;2022-08-01T07:56:34;1.73;;;1.38;;
17592;SDS011;8915;51.760;14.300;2022-08-01T07:59:02;2.20;;;1.52;;
17592;SDS011;8915;51.760;14.300;2022-08-01T08:01:28;1.40;;;1.30;;
17592;SDS011;8915;51.760;14.300;2022-08-01T08:03:55;1.48;;;1.38;;
17592;SDS011;8915;51.760;14.300;2022-08-01T08:06:21;1.23;;;1.13;;
17592;SDS011;8915;51.760;14.300;2022-08-01T08:08:47;1.40;;;1.30;;
17592;SDS011;8915;51.760;14.300;2022-08-01T08:11:14;1.60;;;1.33;;
17592;SDS011;8915;51.760;14.300;2022-08-01T08:13:40;1.50;;;1.40;;
17592;SDS011;8915;51.760;14.300;2022-08-01T08:16:08;1.60;;;1.50;;
17592;SDS011;8915;51.760;14.300;2022-08-01T08:18:34;1.45;;;1.35;;
17592;SDS011;8915;51.760;14.300;2022-08-01T08:21:03;1.58;;;1.38;;
17592;SDS011;8915;51.760;14.300;2022-08-01T08:23:29;1.52;;;1.30;;
17592;SDS011;8915;51.760;14.300;2022-08-01T08:26:13;1.50;;;1.40;;
17592;SDS011;8915;51.760;14.300;2022-08-01T08:28:40;1.50;;;1.40;;
17592;SDS011;8915;51.760;14.300;2022-08-01T08:31:07;4.35;;;1.45;;
17592;SDS011;8915;51.760;14.300;2022-08-01T08:33:34;1.65;;;1.55;;
17592;SDS011;8915;51.760;14.300;2022-08-01T08:36:00;1.30;;;1.20;;
17592;SDS011;8915;51.760;14.300;2022-08-01T08:38:27;1.50;;;1.40;;
17592;SDS011;8915;51.760;14.300;2022-08-01T08:40:53;4.45;;;1.05;;
17592;SDS011;8915;51.760;14.300;2022-08-01T08:43:21;1.08;;;0.98;;
17592;SDS011;8915;51.760;14.300;2022-08-01T08:45:48;1.13;;;1.02;;
17592;SDS011;8915;51.760;14.300;2022-08-01T08:48:16;1.17;;;1.10;;
17592;SDS011;8915;51.760;14.300;2022-08-01T08:50:43;1.13;;;1.02;;
17592;SDS011;8915;51.760;14.300;2022-08-01T08:53:11;1.00;;;0.90;;
17592;SDS011;8915;51.760;14.300;2022-08-01T08:55:39;0.95;;;0.95;;
17592;SDS011;8915;51.760;14.300;2022-08-01T08:58:08;1.13;;;1.00;;
17592;SDS011;8915;51.760;14.300;2022-08-01T09:00:38;0.93;;;0.93;;
17592;SDS011;8915;51.760;14.300;2022-08-01T09:03:05;0.82;;;0.82;;
17592;SDS011;8915;51.760;14.300;2022-08-01T09:05:32;0.90;;;0.90;;
17592;SDS011;8915;51.760;14.300;2022-08-01T09:07:59;1.13;;;1.02;;
17592;SDS011;8915;51.760;14.300;2022-08-01T09:10:25;1.20;;;1.10;;
17592;SDS011;8915;51.760;14.300;2022-08-01T09:13:02;1.40;;;1.00;;
17592;SDS011;8915;51.760;14.300;2022-08-01T09:15:39;0.80;;;0.80;;
17592;SDS011;8915;51.760;14.300;2022-08-01T09:18:25;1.10;;;1.00;;
17592;SDS011;8915;51.760;14.300;2022-08-01T09:21:07;1.00;;;0.90;;
17592;SDS011;8915;51.760;14.300;2022-08-01T09:23:36;1.25;;;1.00;;
17592;SDS011;8915;51.760;14.300;2022-08-01T09:26:04;1.25;;;1.15;;
17592;SDS011;8915;51.760;14.300;2022-08-01T09:28:32;1.98;;;1.42;;
17592;SDS011;8915;51.760;14.300;2022-08-01T09:30:59;0.70;;;0.70;;
17592;SDS011;8915;51.760;14.300;2022-08-01T09:33:45;1.45;;;1.20;;
17592;SDS011;8915;51.760;14.300;2022-08-01T09:36:15;1.05;;;0.95;;
17592;SDS011;8915;51.760;14.300;2022-08-01T09:38:41;0.90;;;0.90;;
17592;SDS011;8915;51.760;14.300;2022-08-01T09:41:08;1.20;;;1.08;;
17592;SDS011;8915;51.760;14.300;2022-08-01T09:43:36;1.85;;;1.20;;
17592;SDS011;8915;51.760;14.300;2022-08-01T09:46:04;1.00;;;0.93;;
17592;SDS011;8915;51.760;14.300;2022-08-01T09:48:34;1.30;;;1.20;;
17592;SDS011;8915;51.760;14.300;2022-08-01T09:51:02;1.00;;;0.90;;
17592;SDS011;8915;51.760;14.300;2022-08-01T09:53:40;1.45;;;1.13;;
17592;SDS011;8915;51.760;14.300;2022-08-01T09:56:08;1.08;;;1.05;;
17592;SDS011;8915;51.760;14.300;2022-08-01T09:58:48;0.88;;;0.88;;
17592;SDS011;8915;51.760;14.300;2022-08-01T10:01:15;0.80;;;0.80;;
17592;SDS011;8915;51.760;14.300;2022-08-01T10:03:42;1.35;;;1.15;;
17592;SDS011;8915;51.760;14.300;2022-08-01T10:06:18;0.80;;;0.80;;
17592;SDS011;8915;51.760;14.300;2022-08-01T10:08:47;1.92;;;1.00;;
17592;SDS011;8915;51.760;14.300;2022-08-01T10:11:14;0.90;;;0.90;;
17592;SDS011;8915;51.760;14.300;2022-08-01T10:13:41;1.33;;;1.10;;
17592;SDS011;8915;51.760;14.300;2022-08-01T10:16:07;0.82;;;0.82;;
17592;SDS011;8915;51.760;14.300;2022-08-01T10:18:35;0.82;;;0.82;;
17592;SDS011;8915;51.760;14.300;2022-08-01T10:21:04;1.23;;;0.80;;
17592;SDS011;8915;51.760;14.300;2022-08-01T10:23:33;0.80;;;0.75;;
17592;SDS011;8915;51.760;14.300;2022-08-01T10:26:02;0.93;;;0.90;;
17592;SDS011;8915;51.760;14.300;2022-08-01T10:28:31;1.10;;;1.00;;
17592;SDS011;8915;51.760;14.300;2022-08-01T10:31:00;1.00;;;0.90;;
17592;SDS011;8915;51.760;14.300;2022-08-01T10:33:27;1.17;;;1.08;;
17592;SDS011;8915;51.760;14.300;2022-08-01T10:35:54;0.63;;;0.63;;
17592;SDS011;8915;51.760;14.300;2022-08-01T10:38:22;0.73;;;0.20;;
17592;SDS011;8915;51.760;14.300;2022-08-01T10:40:49;2.17;;;0.55;;
17592;SDS011;8915;51.760;14.300;2022-08-01T10:43:17;0.50;;;0.50;;
17592;SDS011;8915;51.760;14.300;2022-08-01T10:45:44;0.45;;;0.22;;
17592;SDS011;8915;51.760;14.300;2022-08-01T10:48:11;1.75;;;0.32;;
17592;SDS011;8915;51.760;14.300;2022-08-01T10:50:43;0.30;;;0.17;;
17592;SDS011;8915;51.760;14.300;2022-08-01T10:53:12;0.10;;;0.10;;
17592;SDS011;8915;51.760;14.300;2022-08-01T10:55:47;0.10;;;0.10;;
17592;SDS011;8915;51.760;14.300;2022-08-01T10:58:21;0.10;;;0.10;;
17592;SDS011;8915;51.760;14.300;2022-08-01T11:00:48;0.93;;;0.40;;
17592;SDS011;8915;51.760;14.300;2022-08-01T11:03:35;0.57;;;0.57;;
17592;SDS011;8915;51.760;14.300;2022-08-01T11:06:02;0.50;;;0.50;;
17592;SDS011;8915;51.760;14.300;2022-08-01T11:08:29;0.40;;;0.40;;
17592;SDS011;8915;51.760;14.300;2022-08-01T11:10:59;0.47;;;0.43;;
17592;SDS011;8915;51.760;14.300;2022-08-01T11:16:32;1.80;;;1.03;;
17592;SDS011;8915;51.760;14.300;2022-08-01T11:18:59;1.07;;;0.80;;
17592;SDS011;8915;51.760;14.300;2022-08-01T11:27:23;1.27;;;1.00;;
17592;SDS011;8915;51.760;14.300;2022-08-01T11:32:51;1.30;;;0.90;;
17592;SDS011;8915;51.760;14.300;2022-08-01T11:35:21;2.60;;;1.20;;
17592;SDS011;8915;51.760;14.300;2022-08-01T11:37:49;1.80;;;1.20;;
17592;SDS011;8915;51.760;14.300;2022-08-01T11:40:18;1.30;;;1.20;;
17592;SDS011;8915;51.760;14.300;2022-08-01T11:42:46;1.40;;;1.23;;
17592;SDS011;8915;51.760;14.300;2022-08-01T11:45:13;1.10;;;1.00;;
17592;SDS011;8915;51.760;14.300;2022-08-01T11:47:44;1.73;;;1.40;;
17592;SDS011;8915;51.760;14.300;2022-08-01T11:50:31;1.77;;;1.60;;
17592;SDS011;8915;51.760;14.300;2022-08-01T11:52:59;1.90;;;1.53;;
17592;SDS011;8915;51.760;14.300;2022-08-01T11:55:27;1.87;;;1.50;;
17592;SDS011;8915;51.760;14.300;2022-08-01T11:58:00;1.73;;;1.50;;
17592;SDS011;8915;51.760;14.300;2022-08-01T12:00:28;2.77;;;2.00;;
17592;SDS011;8915;51.760;14.300;2022-08-01T12:02:58;1.77;;;1.67;;
17592;SDS011;8915;51.760;14.300;2022-08-01T12:05:25;4.13;;;1.73;;
17592;SDS011;8915;51.760;14.300;2022-08-01T12:07:53;2.00;;;1.80;;
17592;SDS011;8915;51.760;14.300;2022-08-01T12:10:21;1.55;;;1.45;;
17592;SDS011;8915;51.760;14.300;2022-08-01T12:12:50;2.17;;;1.80;;
17592;SDS011;8915;51.760;14.300;2022-08-01T12:15:18;2.10;;;1.90;;
17592;SDS011;8915;51.760;14.300;2022-08-01T12:17:46;1.95;;;1.75;;
17592;SDS011;8915;51.760;14.300;2022-08-01T12:20:18;1.88;;;1.50;;
17592;SDS011;8915;51.760;14.300;2022-08-01T12:22:45;2.05;;;1.80;;
17592;SDS011;8915;51.760;14.300;2022-08-01T12:25:12;3.70;;;1.63;;
17592;SDS011;8915;51.760;14.300;2022-08-01T12:27:41;1.65;;;1.45;;
17592;SDS011;8915;51.760;14.300;2022-08-01T12:30:09;2.83;;;2.00;;
17592;SDS011;8915;51.760;14.300;2022-08-01T12:32:38;1.63;;;1.52;;
17592;SDS011;8915;51.760;14.300;2022-08-01T12:35:06;1.98;;;1.50;;
17592;SDS011;8915;51.760;14.300;2022-08-01T12:37:36;2.20;;;1.65;;
17592;SDS011;8915;51.760;14.300;2022-08-01T12:40:08;1.60;;;1.50;;
17592;SDS011;8915;51.760;14.300;2022-08-01T12:42:37;1.60;;;1.50;;
17592;SDS011;8915;51.760;14.300;2022-08-01T12:45:05;1.67;;;1.58;;
17592;SDS011;8915;51.760;14.300;2022-08-01T12:47:34;1.50;;;1.40;;
17592;SDS011;8915;51.760;14.300;2022-08-01T12:50:01;1.33;;;1.17;;
17592;SDS011;8915;51.760;14.300;2022-08-01T12:52:29;1.13;;;1.02;;
17592;SDS011;8915;51.760;14.300;2022-08-01T12:55:02;1.30;;;1.20;;
17592;SDS011;8915;51.760;14.300;2022-08-01T12:57:34;1.98;;;1.10;;
17592;SDS011;8915;51.760;14.300;2022-08-01T13:00:06;1.85;;;1.02;;
17592;SDS011;8915;51.760;14.300;2022-08-01T13:02:36;1.60;;;1.35;;
17592;SDS011;8915;51.760;14.300;2022-08-01T13:05:02;1.35;;;1.25;;
17592;SDS011;8915;51.760;14.300;2022-08-01T13:07:36;1.80;;;1.30;;
17592;SDS011;8915;51.760;14.300;2022-08-01T13:10:06;1.35;;;1.20;;
17592;SDS011;8915;51.760;14.300;2022-08-01T13:12:34;1.60;;;1.50;;
17592;SDS011;8915;51.760;14.300;2022-08-01T13:15:15;1.40;;;1.30;;
17592;SDS011;8915;51.760;14.300;2022-08-01T13:17:42;1.30;;;1.20;;
17592;SDS011;8915;51.760;14.300;2022-08-01T13:20:09;1.70;;;1.23;;
17592;SDS011;8915;51.760;14.300;2022-08-01T13:22:36;1.25;;;1.15;;
17592;SDS011;8915;51.760;14.300;2022-08-01T13:25:11;2.17;;;1.23;;
17592;SDS011;8915;51.760;14.300;2022-08-01T13:27:38;1.17;;;1.08;;
17592;SDS011;8915;51.760;14.300;2022-08-01T13:30:14;0.95;;;0.90;;
17592;SDS011;8915;51.760;14.300;2022-08-01T13:32:42;0.80;;;0.80;;
17592;SDS011;8915;51.760;14.300;2022-08-01T13:35:09;0.93;;;0.90;;
17592;SDS011;8915;51.760;14.300;2022-08-01T13:37:38;1.10;;;1.00;;
17592;SDS011;8915;51.760;14.300;2022-08-01T13:40:06;0.95;;;0.90;;
17592;SDS011;8915;51.760;14.300;2022-08-01T13:42:35;1.08;;;0.98;;
17592;SDS011;8915;51.760;14.300;2022-08-01T13:45:03;0.90;;;0.90;;
17592;SDS011;8915;51.760;14.300;2022-08-01T13:47:32;0.90;;;0.80;;
17592;SDS011;8915;51.760;14.300;2022-08-01T13:49:58;0.80;;;0.80;;
17592;SDS011;8915;51.760;14.300;2022-08-01T13:52:27;0.90;;;0.90;;
17592;SDS011;8915;51.760;14.300;2022-08-01T13:54:54;1.17;;;1.08;;
17592;SDS011;8915;51.760;14.300;2022-08-01T13:57:20;0.90;;;0.90;;
17592;SDS011;8915;51.760;14.300;2022-08-01T13:59:48;0.85;;;0.85;;
17592;SDS011;8915;51.760;14.300;2022-08-01T14:02:16;0.85;;;0.85;;
17592;SDS011;8915;51.760;14.300;2022-08-01T14:04:42;1.10;;;1.00;;
17592;SDS011;8915;51.760;14.300;2022-08-01T14:07:09;1.00;;;1.00;;
17592;SDS011;8915;51.760;14.300;2022-08-01T14:09:35;1.10;;;1.00;;
17592;SDS011;8915;51.760;14.300;2022-08-01T14:12:02;1.35;;;1.05;;
17592;SDS011;8915;51.760;14.300;2022-08-01T14:14:28;1.10;;;1.00;;
17592;SDS011;8915;51.760;14.300;2022-08-01T14:16:56;0.93;;;0.85;;
17592;SDS011;8915;51.760;14.300;2022-08-01T14:19:22;1.10;;;1.00;;
17592;SDS011;8915;51.760;14.300;2022-08-01T14:21:49;1.00;;;0.95;;
17592;SDS011;8915;51.760;14.300;2022-08-01T14:24:17;1.15;;;1.05;;
17592;SDS011;8915;51.760;14.300;2022-08-01T14:26:43;1.00;;;0.90;;
17592;SDS011;8915;51.760;14.300;2022-08-01T14:29:10;1.17;;;1.00;;
17592;SDS011;8915;51.760;14.300;2022-08-01T14:31:36;0.95;;;0.93;;
17592;SDS011;8915;51.760;14.300;2022-08-01T14:34:04;1.02;;;0.95;;
17592;SDS011;8915;51.760;14.300;2022-08-01T14:36:30;1.48;;;0.85;;
17592;SDS011;8915;51.760;14.300;2022-08-01T14:38:56;0.85;;;0.85;;
17592;SDS011;8915;51.760;14.300;2022-08-01T14:41:23;0.80;;;0.80;;
17592;SDS011;8915;51.760;14.300;2022-08-01T14:43:50;1.17;;;0.80;;
17592;SDS011;8915;51.760;14.300;2022-08-01T14:46:16;0.80;;;0.80;;
17592;SDS011;8915;51.760;14.300;2022-08-01T14:48:43;0.68;;;0.68;;
17592;SDS011;8915;51.760;14.300;2022-08-01T14:51:10;0.70;;;0.70;;
17592;SDS011;8915;51.760;14.300;2022-08-01T14:53:37;0.90;;;0.80;;
17592;SDS011;8915;51.760;14.300;2022-08-01T14:56:04;1.10;;;0.80;;
17592;SDS011;8915;51.760;14.300;2022-08-01T14:58:31;0.63;;;0.63;;
17592;SDS011;8915;51.760;14.300;2022-08-01T15:00:57;0.50;;;0.50;;
17592;SDS011;8915;51.760;14.300;2022-08-01T15:03:24;0.60;;;0.60;;
17592;SDS011;8915;51.760;14.300;2022-08-01T15:05:50;1.05;;;0.70;;
17592;SDS011;8915;51.760;14.300;2022-08-01T15:08:18;0.75;;;0.75;;